Thursday, January 17, 2019, 8:27 PM EST
Back to Local

K1P1, Plymouth, Plymouth Municipal Airport

Location: Plymouth, NH, United States Lat: 43.779
Local Time: 8:27 PM EST ( 1:27 GMT) Lon: -71.754
Time Zone: US/Eastern Elev: 505 ft

Show me the last for .
Show Decoded

2019-01-17 20:15 METAR K1P1 180115Z AUTO 00000KT 10SM BKN110 M12/M17 A3031 RMK AO2 T11201167 =
2019-01-17 19:55 METAR K1P1 180055Z AUTO 00000KT 10SM OVC110 M12/M17 A3031 RMK AO2 T11171171 =
2019-01-17 19:35 METAR K1P1 180035Z AUTO 00000KT 10SM OVC110 M12/M17 A3031 RMK AO2 T11161170 =
2019-01-17 19:15 METAR K1P1 180015Z AUTO 00000KT 10SM BKN110 M12/M17 A3032 RMK AO2 T11161175 =
2019-01-17 18:55 METAR K1P1 172355Z AUTO 00000KT 10SM SCT120 M11/M19 A3032 RMK AO2 T11101193
                 11078 21117 =
2019-01-17 18:35 METAR K1P1 172335Z AUTO 00000KT 10SM CLR M11/M18 A3032 RMK AO2 T11131183 =
2019-01-17 18:15 METAR K1P1 172315Z AUTO 00000KT 10SM CLR M11/M19 A3032 RMK AO2 T11101190 =
2019-01-17 17:55 METAR K1P1 172255Z AUTO 00000KT 10SM CLR M12/M19 A3031 RMK AO2 T11171194 =
2019-01-17 17:35 METAR K1P1 172235Z AUTO 00000KT 10SM CLR M11/M19 A3031 RMK AO2 T11131188 =
2019-01-17 17:15 METAR K1P1 172215Z AUTO 00000KT 10SM CLR M11/M20 A3030 RMK AO2 T11101205 =
2019-01-17 16:55 METAR K1P1 172155Z AUTO 00000KT 10SM CLR M11/M20 A3030 RMK AO2 T11061200 =
2019-01-17 16:35 METAR K1P1 172135Z AUTO 00000KT 10SM CLR M10/M21 A3030 RMK AO2 T10971212 =
2019-01-17 16:15 METAR K1P1 172115Z AUTO 27005KT 10SM CLR M09/M22 A3031 RMK AO2 T10911221 =
2019-01-17 15:55 METAR K1P1 172055Z AUTO 27006KT 10SM CLR M09/M22 A3031 RMK AO2 T10901225 =
2019-01-17 15:35 METAR K1P1 172035Z AUTO 24006KT 10SM CLR M09/M22 A3032 RMK AO2 T10901221 =
2019-01-17 15:15 METAR K1P1 172015Z AUTO 25006KT 10SM CLR M08/M22 A3031 RMK AO2 T10821224 =
2019-01-17 14:55 METAR K1P1 171955Z AUTO 25008KT 10SM CLR M08/M23 A3031 RMK AO2 T10791228 =
2019-01-17 14:35 METAR K1P1 171935Z AUTO 28007KT 10SM CLR M08/M23 A3031 RMK AO2 T10801233 =
2019-01-17 14:15 METAR K1P1 171915Z AUTO 27008KT 10SM CLR M08/M23 A3032 RMK AO2 T10801234 =
2019-01-17 13:55 METAR K1P1 171855Z AUTO 29005KT 10SM CLR M08/M23 A3032 RMK AO2 T10811228 =
2019-01-17 13:35 METAR K1P1 171835Z AUTO 26008KT 10SM CLR M08/M22 A3032 RMK AO2 T10831224 =
2019-01-17 13:15 METAR K1P1 171815Z AUTO 27007KT 10SM CLR M08/M23 A3033 RMK AO2 T10851228 =
2019-01-17 12:55 METAR K1P1 171755Z AUTO 26003KT 10SM CLR M09/M24 A3034 RMK AO2 T10871236 11087
                 21193 =
2019-01-17 12:35 METAR K1P1 171735Z AUTO 27009G14KT 10SM CLR M09/M24 A3034 RMK AO2 T10901245 =
2019-01-17 12:15 METAR K1P1 171715Z AUTO 27005KT 10SM CLR M09/M24 A3035 RMK AO2 T10941236 =
2019-01-17 11:55 METAR K1P1 171655Z AUTO 27006KT 10SM CLR M10/M23 A3037 RMK AO2 T11001228 =
2019-01-17 11:35 METAR K1P1 171635Z AUTO 25006KT 220V350 10SM CLR M10/M23 A3038 RMK AO2 T11051230
                 =
2019-01-17 11:15 METAR K1P1 171615Z AUTO 27007KT 10SM CLR M11/M22 A3039 RMK AO2 T11101224 =
2019-01-17 10:55 METAR K1P1 171555Z AUTO 27006KT 10SM CLR M11/M23 A3040 RMK AO2 T11141227 =
2019-01-17 10:35 METAR K1P1 171535Z AUTO 30005KT 10SM CLR M12/M23 A3040 RMK AO2 T11221229 =
2019-01-17 10:15 METAR K1P1 171515Z AUTO 28003KT 10SM CLR M13/M22 A3041 RMK AO2 T11281221 =
2019-01-17 09:55 METAR K1P1 171455Z AUTO 33003KT 10SM CLR M13/M22 A3041 RMK AO2 T11321220 =
2019-01-17 09:35 METAR K1P1 171435Z AUTO 29005KT 10SM CLR M14/M22 A3040 RMK AO2 T11391220 =
2019-01-17 09:15 METAR K1P1 171415Z AUTO 30008KT 10SM CLR M15/M21 A3039 RMK AO2 T11471215 =
2019-01-17 08:55 METAR K1P1 171355Z AUTO 30008KT 10SM CLR M15/M22 A3039 RMK AO2 T11531216 =
2019-01-17 08:35 METAR K1P1 171335Z AUTO 00000KT 10SM CLR M16/M21 A3039 RMK AO2 T11591215 =
2019-01-17 08:15 METAR K1P1 171315Z AUTO 00000KT 10SM CLR M17/M21 A3037 RMK AO2 T11711214 =
2019-01-17 07:55 METAR K1P1 171255Z AUTO 00000KT 10SM CLR M18/M21 A3037 RMK AO2 T11761213 =
2019-01-17 07:35 METAR K1P1 171235Z AUTO 00000KT 10SM CLR M18/M22 A3036 RMK AO2 T11821216 =
2019-01-17 07:15 METAR K1P1 171215Z AUTO 00000KT 10SM CLR M19/M22 A3035 RMK AO2 T11921221 =
2019-01-17 06:55 METAR K1P1 171155Z AUTO 00000KT 10SM CLR M18/M21 A3035 RMK AO2 T11781212 11122
                 21181 =
2019-01-17 06:35 METAR K1P1 171135Z AUTO 00000KT 10SM CLR M18/M22 A3034 RMK AO2 T11761218 =
2019-01-17 06:15 METAR K1P1 171115Z AUTO 25006KT 10SM CLR M17/M22 A3034 RMK AO2 T11661217 =
2019-01-17 05:55 METAR K1P1 171055Z AUTO 22004KT 10SM CLR M16/M21 A3033 RMK AO2 T11631214 =
2019-01-17 05:35 METAR K1P1 171035Z AUTO 00000KT 10SM CLR M17/M21 A3033 RMK AO2 T11661209 =
2019-01-17 05:15 METAR K1P1 171015Z AUTO 00000KT 10SM CLR M16/M21 A3032 RMK AO2 T11641208 =
2019-01-17 04:55 METAR K1P1 170955Z AUTO 00000KT 10SM CLR M16/M20 A3031 RMK AO2 T11601205 =
2019-01-17 04:35 METAR K1P1 170935Z AUTO 00000KT 10SM CLR M15/M20 A3031 RMK AO2 T11551203 =
2019-01-17 04:15 METAR K1P1 170915Z AUTO 00000KT 10SM CLR M16/M21 A3030 RMK AO2 T11621210 =
2019-01-17 03:55 METAR K1P1 170855Z AUTO 00000KT 10SM CLR M15/M20 A3029 RMK AO2 T11521203 =
2019-01-17 03:35 METAR K1P1 170835Z AUTO 00000KT 10SM CLR M16/M21 A3029 RMK AO2 T11601206 =
2019-01-17 03:15 METAR K1P1 170815Z AUTO 00000KT 10SM CLR M15/M20 A3028 RMK AO2 T11551196 =
2019-01-17 02:55 METAR K1P1 170755Z AUTO 00000KT 10SM CLR M15/M20 A3027 RMK AO2 T11541197 =
2019-01-17 02:35 METAR K1P1 170735Z AUTO 00000KT 10SM CLR M14/M20 A3026 RMK AO2 T11431199 =
2019-01-17 01:55 METAR K1P1 170655Z AUTO 00000KT 10SM CLR M13/M19 A3024 RMK AO2 T11351193 =
2019-01-17 01:35 METAR K1P1 170635Z AUTO 00000KT 10SM CLR M13/M19 A3023 RMK AO2 T11311192 =
2019-01-17 01:15 METAR K1P1 170615Z AUTO 00000KT 10SM CLR M12/M19 A3021 RMK AO2 T11251190 =
2019-01-17 00:55 METAR K1P1 170555Z AUTO 29006KT 10SM CLR M12/M18 A3020 RMK AO2 T11221185 11005
                 21122 =
2019-01-17 00:35 METAR K1P1 170535Z AUTO 29006KT 10SM CLR M12/M18 A3019 RMK AO2 T11171185 =
2019-01-17 00:15 METAR K1P1 170515Z AUTO 30010G15KT 10SM CLR M11/M18 A3018 RMK AO2 T11121180 =
2019-01-16 23:55 METAR K1P1 170455Z AUTO 32009G16KT 10SM CLR M11/M18 A3018 RMK AO2 T11071177 =
2019-01-16 23:35 METAR K1P1 170435Z AUTO 32008G16KT 10SM CLR M10/M17 A3017 RMK AO2 T11021172 =
2019-01-16 23:15 METAR K1P1 170415Z AUTO 33007KT 10SM CLR M10/M17 A3016 RMK AO2 T10991169 =
2019-01-16 22:55 METAR K1P1 170355Z AUTO 33010G17KT 10SM CLR M09/M16 A3016 RMK AO2 T10931165
                 400291093 =
2019-01-16 22:35 METAR K1P1 170335Z AUTO 32009G14KT 10SM CLR M09/M16 A3014 RMK AO2 T10891165 =
2019-01-16 22:15 METAR K1P1 170315Z AUTO 34009G14KT 10SM CLR M08/M16 A3013 RMK AO2 T10801163 =
2019-01-16 21:55 METAR K1P1 170255Z AUTO 31009KT 270V330 10SM CLR M07/M15 A3011 RMK AO2 T10701155
                 =
2019-01-16 21:35 METAR K1P1 170235Z AUTO 30010G15KT 10SM CLR M06/M15 A3009 RMK AO2 T10631150 =
2019-01-16 21:15 METAR K1P1 170215Z AUTO 28011G17KT 240V300 10SM CLR M05/M14 A3007 RMK AO2
                 T10531140 =
2019-01-16 20:55 METAR K1P1 170155Z AUTO 29014G22KT 7SM SCT055 M05/M14 A3005 RMK AO2 T10471143 =
2019-01-16 20:35 METAR K1P1 170135Z AUTO 29016G23KT 260V320 7SM SCT041 BKN055 M04/M12 A3003 RMK
                 AO2 T10361121 =

Support USWX by starting your Amazon purchase here.